Airfield :
LOGIN :

Register | Disclaimer

   EN    FR    IT 

 










Legend :    VFR   Marginal VFR   IFR   Intensive IFR   Very Intensive IFR
Visi :
Ceiling :
>= 8 km
>= 3000ft
5 to 8 km
1000 to 3000 ft
1500m to 5 km
500 to 1000 ft
800 to 1500m
200 to 500 ft
< 800m
< 200 ft
Symbols :   Thunderstorms  Fog  Heavy snow  Heavy precipitations  Wind > 20 kt
SIGMETs :     Misc.  Thunderstorms  Icing  Turbulence  Mountain Waves  Volcanic Ashes






- Airport Elevation : 359 ft
- IATA code : BVA


LFOB - Beauvais

CURRENT METAR :
  • 291400Z AUTO 24018KT 9999 FEW045/// BKN070/// BKN086/// ///TCU 07/03 Q0994 TEMPO 25025G50KT 1200 TSRAGS BKN030CB

EXPIRED METARs :
  • 291330Z AUTO 26017KT 8000 -RA FEW021/// BKN028/// BKN033/// ///TCU 06/04 Q0993 TEMPO 25025G50KT 1200 TSRAGS BKN030CB
  • 291300Z AUTO 25018G29KT 9999 FEW028/// BKN034/// BKN042/// ///TCU 10/04 Q0992 TEMPO 25025G50KT 1200 TSRAGS BKN030CB
  • 291230Z AUTO 25020KT 220V280 9999 FEW026 SCT034 BKN150 09/05 Q0992 TEMPO 25025G50KT 1200 TSRAGS BKN030CB
  • 291200Z AUTO 26018KT 9999 BKN020 BKN043 BKN090 09/05 Q0992 BECMG 25020G35KT
  • 291130Z AUTO 27019KT 9999 BKN020 BKN066 BKN082 08/05 Q0991 BECMG 25020G35KT
  • 291100Z AUTO 28024KT 9999 -RA FEW018/// SCT028/// BKN045/// ///TCU 08/05 Q0990 TEMPO 3000 RA BKN008 BKN025CB BECMG 25020G35KT

TAF AMD TAF LFOB
Valid from the 29 at 12:00 until the 01 at 12:00 UTC


291255Z 2912/0112 25020G35KT 9999 BKN030
TEMPO 2912/2918 4000 SHRA BKN030CB
PROB40
TEMPO 2913/2916 25025G50KT 1200 TSRAGS
BECMG 0101/0103 24015G25KT
TEMPO 0107/0109 BKN008
BECMG 0109/0112 16013KT 3000 RA OVC012
ATIS : +33 3 44 11 49 28



MET'MAP, your aeronautical weather chart ! - Copyright ORBIFLY December 2007 - Disclaimer

ORBIFLY MET'MAP TEAM :

Programming & Development : Alexandra Zaïnal
Concept & original design : Baudouin d'Aumeries
Assistance for programming : Marc-Olivier Méhu
Technical & hardware support : Manuel Goepfert

Contact : metmap@orbifly.com




SOURCES & CREDITS :

   NOAA